Saturday, December 15, 2018, 1:33 PM EST
Back to Local

KMPO, Mt Pocono Pocono Mountains

Location: Pocono Summit, PA, United States Lat: 41.133
Local Time: 1:33 PM EST (18:33 GMT) Lon: -75.383
Time Zone: US/Eastern Elev: 1915 ft

Show me the last for .
Show Decoded

2018-12-15 12:53 METAR KMPO 151753Z AUTO 04006KT 10SM CLR 08/03 A3010 RMK AO2 SLP203 60000
                 T00780033 10078 20044 58016 =
2018-12-15 11:53 METAR KMPO 151653Z AUTO 01008KT 10SM BKN033 06/05 A3012 RMK AO2 SLP213 T00610050
                 =
2018-12-15 11:45 METAR KMPO 151645Z AUTO 36008KT 10SM BKN031 06/05 A3012 RMK AO2 T00610050 =
2018-12-15 11:24 METAR KMPO 151624Z AUTO 01008KT 10SM BKN028 07/04 A3012 RMK AO2 T00670044 =
2018-12-15 10:53 METAR KMPO 151553Z AUTO 02004KT 10SM CLR 07/05 A3013 RMK AO2 SLP214 T00720050 =
2018-12-15 10:43 METAR KMPO 151543Z AUTO 03009KT 10SM SCT020 07/05 A3013 RMK AO2 T00670050 =
2018-12-15 09:53 METAR KMPO 151453Z AUTO 02005KT 10SM SCT004 OVC016 07/07 A3015 RMK AO2 SLP220
                 60000 T00670067 50002 $ =
2018-12-15 09:18 METAR KMPO 151418Z AUTO 36006KT 7SM OVC002 07/07 A3015 RMK AO2 T00720072 $ =
2018-12-15 09:00 METAR KMPO 151400Z AUTO 00000KT 2 1/2SM BR BKN004 OVC026 07/07 A3016 RMK AO2
                 T00720072 $ =
2018-12-15 08:53 METAR KMPO 151353Z AUTO 32004KT 8SM SCT003 BKN007 OVC026 07/07 A3016 RMK AO2
                 RAB28E37 CIG 004V010 SLP223 P0000 T00720072 $ =
2018-12-15 08:46 METAR KMPO 151346Z AUTO 34005KT 10SM SCT003 BKN009 OVC026 07/07 A3016 RMK AO2
                 RAB28E37 CIG 008V011 P0000 T00720072 $ =
2018-12-15 08:39 METAR KMPO 151339Z AUTO 34006KT 10SM SCT003 BKN012 OVC028 07/07 A3015 RMK AO2
                 RAB28E37 P0000 T00720072 $ =
2018-12-15 08:28 METAR KMPO 151328Z AUTO 34009KT 8SM -RA BKN008 OVC012 07/07 A3015 RMK AO2 RAB28
                 CIG 005V011 P0000 T00720072 $ =
2018-12-15 08:00 METAR KMPO 151300Z AUTO 32004KT 4SM BR BKN010 OVC013 04/04 A3014 RMK AO2 CIG
                 007V012 T00440044 $ =
2018-12-15 07:53 METAR KMPO 151253Z AUTO 32005KT 4SM BR BKN008 OVC011 05/05 A3014 RMK AO2 CIG
                 006V011 SLP218 T00500050 $ =
2018-12-15 07:37 METAR KMPO 151237Z AUTO 00000KT 5SM BR OVC007 05/05 A3012 RMK AO2 T00500050 $ =
2018-12-15 07:09 METAR KMPO 151209Z AUTO 31003KT 2SM BR OVC007 04/04 A3013 RMK AO2 T00440044 $ =
2018-12-15 07:01 METAR KMPO 151201Z AUTO 00000KT 2SM BR BKN005 OVC009 06/06 A3014 RMK AO2
                 T00560056 $ =
2018-12-15 06:53 METAR KMPO 151153Z AUTO 33004KT 1SM BR VV004 05/05 A3014 RMK AO2 SLP219 60009
                 70017 T00500050 10050 20033 55001 $ =
2018-12-15 06:48 METAR KMPO 151148Z AUTO 34004KT 3/4SM BR VV003 05/05 A3014 RMK AO2 $ =
2018-12-15 06:41 METAR KMPO 151141Z AUTO 35005KT 1SM BR VV003 05/05 A3014 RMK AO2 T00500050 $ =
2018-12-15 06:06 METAR KMPO 151106Z AUTO 00000KT 1/2SM FG VV002 04/04 A3014 RMK AO2 T00440044 $ =
2018-12-15 05:53 METAR KMPO 151053Z AUTO 34005KT 1/4SM FG VV001 03/03 A3014 RMK AO2 SLP221
                 T00330033 $ =
2018-12-15 05:34 METAR KMPO 151034Z AUTO 00000KT 1/4SM FG VV002 04/04 A3012 RMK AO2 T00390039 $ =
2018-12-15 05:04 METAR KMPO 151004Z AUTO 32006KT 1/2SM FG VV002 03/03 A3014 RMK AO2 T00330033 $ =
2018-12-15 04:53 METAR KMPO 150953Z AUTO 00000KT 1 1/2SM BR OVC002 04/04 A3014 RMK AO2 SLP221
                 T00390039 $ =
2018-12-15 04:39 METAR KMPO 150939Z AUTO 33004KT 1 3/4SM BR OVC002 04/04 A3015 RMK AO2 T00390039
                 $ =
2018-12-15 03:53 METAR KMPO 150853Z AUTO 33005KT 8SM OVC003 04/04 A3016 RMK AO2 RAE0759 SLP226
                 P0000 60009 T00390039 58009 $ =
2018-12-15 02:53 METAR KMPO 150753Z AUTO 31003KT 8SM -RA OVC003 04/04 A3018 RMK AO2 SLP233 P0003
                 T00390039 $ =
2018-12-15 02:14 METAR KMPO 150714Z AUTO 29005KT 8SM -RA BKN003 BKN023 OVC055 04/04 A3019 RMK AO2
                 P0002 T00440044 $ =
2018-12-15 02:03 METAR KMPO 150703Z AUTO 31008KT 7SM -RA SCT003 BKN026 OVC055 04/04 A3019 RMK AO2
                 P0001 T00390039 $ =
2018-12-15 01:53 METAR KMPO 150653Z AUTO 21004KT 8SM -RA SCT023 BKN045 OVC060 04/04 A3017 RMK AO2
                 SLP233 P0006 T00390039 $ =
2018-12-15 00:53 METAR KMPO 150553Z AUTO 29004KT 8SM -RA OVC020 03/03 A3019 RMK AO2 SLP238 P0003
                 60008 T00330033 10044 20033 $ =
2018-12-15 00:30 METAR KMPO 150530Z AUTO VRB04KT 10SM -RA BKN024 BKN029 OVC037 03/03 A3019 RMK
                 AO2 P0002 T00330033 $ =
2018-12-15 00:04 METAR KMPO 150504Z AUTO 27004KT 10SM -RA SCT028 OVC037 03/03 A3020 RMK AO2 P0000
                 T00330033 $ =
2018-12-14 23:53 METAR KMPO 150453Z AUTO 27004KT 10SM -RA BKN028 OVC039 03/03 A3020 RMK AO2
                 SLP243 P0003 T00330033 400501011 $ =
2018-12-14 22:53 METAR KMPO 150353Z AUTO 22006KT 10SM -RA 03/03 A3022 RMK AO2 RAB0255B43 SLP250
                 P0002 T00330033 $ =
2018-12-14 21:53 METAR KMPO 150253Z AUTO 21007KT 10SM BKN033 OVC040 04/04 A3024 RMK AO2 SLP257
                 T00440039 56010 =
2018-12-14 20:53 METAR KMPO 150153Z AUTO 18008KT 10SM BKN035 OVC047 04/04 A3025 RMK AO2 SLP259
                 T00440044 =
2018-12-14 20:26 METAR KMPO 150126Z AUTO 18007KT 10SM SCT005 OVC046 04/04 A3026 RMK AO2 T00440044
                 =
2018-12-14 19:53 METAR KMPO 150053Z AUTO 17007KT 10SM BKN005 OVC050 04/04 A3026 RMK AO2 CIG
                 003V008 SLP262 T00440044 =
2018-12-14 18:53 METAR KMPO 142353Z AUTO 18005KT 9SM OVC004 04/04 A3027 RMK AO2 SLP268 T00440044
                 10050 20028 58005 =
2018-12-14 18:42 METAR KMPO 142342Z AUTO 18006KT 9SM OVC004 04/04 A3028 RMK AO2 T00440044 =
2018-12-14 17:53 METAR KMPO 142253Z AUTO 18006KT 10SM OVC005 04/04 A3029 RMK AO2 CIG 004V009
                 SLP276 T00440044 =
2018-12-14 17:00 METAR KMPO 142200Z AUTO 20007KT 10SM BKN006 OVC011 04/04 A3030 RMK AO2 CIG
                 004V009 T00440044 =
2018-12-14 16:53 METAR KMPO 142153Z AUTO 20007KT 10SM FEW002 OVC008 04/04 A3029 RMK AO2 CIG
                 004V009 SLP275 T00440044 =
2018-12-14 16:15 METAR KMPO 142115Z AUTO 19007KT 3SM BR OVC002 05/05 A3030 RMK AO2 T00500050 =
2018-12-14 16:10 METAR KMPO 142110Z AUTO 19006KT 1SM BR VV002 04/04 A3029 RMK AO2 T00440044 =
2018-12-14 15:53 METAR KMPO 142053Z AUTO 18007KT 1/4SM FG VV001 04/04 A3030 RMK AO2 SLP278
                 T00440044 55003 =
2018-12-14 14:53 METAR KMPO 141953Z AUTO 16007KT M1/4SM FG VV001 03/03 A3028 RMK AO2 SLP271
                 T00330033 $ =
2018-12-14 13:53 METAR KMPO 141853Z AUTO 10004KT M1/4SM FG VV001 03/03 A3028 RMK AO2 SLP274
                 T00280028 $ =

Support USWX by starting your Amazon purchase here.